createdAt,value
2017-11-18T00:00:15.274Z,98833.84
2017-11-18T00:02:44.411Z,98838.50
2017-11-18T00:05:13.564Z,98839.09
2017-11-18T00:07:42.808Z,98839.90
2017-11-18T00:10:12.284Z,98838.83
2017-11-18T00:12:41.408Z,98840.05
2017-11-18T00:15:10.616Z,98842.69
2017-11-18T00:17:39.742Z,98839.42
2017-11-18T00:20:08.933Z,98844.86
2017-11-18T00:22:38.401Z,98842.66
2017-11-18T00:25:07.429Z,98839.19
2017-11-18T00:27:36.628Z,98836.16
2017-11-18T00:30:05.938Z,98835.15
2017-11-18T00:32:35.281Z,98835.56
2017-11-18T00:35:04.412Z,98832.85
2017-11-18T00:37:33.620Z,98828.15
2017-11-18T00:40:03.333Z,98830.58
2017-11-18T00:42:32.533Z,98830.85
2017-11-18T00:45:03.265Z,98834.83
2017-11-18T00:47:32.417Z,98841.30
2017-11-18T00:50:01.765Z,98840.06
2017-11-18T00:52:31.250Z,98838.47
2017-11-18T00:55:00.428Z,98840.48
2017-11-18T00:57:29.539Z,98842.30
2017-11-18T00:59:58.650Z,98841.46
2017-11-18T01:02:27.934Z,98840.88
2017-11-18T01:04:57.373Z,98838.64
2017-11-18T01:07:26.593Z,98843.14
2017-11-18T01:09:55.925Z,98838.88
2017-11-18T01:12:25.335Z,98844.48
2017-11-18T01:14:54.679Z,98839.55
2017-11-18T01:17:24.061Z,98836.48
2017-11-18T01:19:53.537Z,98833.42
2017-11-18T01:22:22.696Z,98829.53
2017-11-18T01:24:51.965Z,98828.94
2017-11-18T01:27:21.352Z,98823.64
2017-11-18T01:29:50.580Z,98818.98
2017-11-18T01:32:19.681Z,98816.95
2017-11-18T01:34:48.942Z,98814.28
2017-11-18T01:37:18.380Z,98817.95
2017-11-18T01:39:47.550Z,98824.45
2017-11-18T01:42:16.669Z,98821.78
2017-11-18T01:44:45.941Z,98819.11
2017-11-18T01:47:15.297Z,98819.95
2017-11-18T01:49:44.408Z,98816.16
2017-11-18T01:52:13.562Z,98815.79
2017-11-18T01:54:42.629Z,98819.66
2017-11-18T01:57:11.940Z,98814.23
2017-11-18T01:59:41.366Z,98812.42
2017-11-18T02:02:12.555Z,98818.53
2017-11-18T02:04:41.649Z,98821.53
2017-11-18T02:07:10.998Z,98826.40
2017-11-18T02:09:40.299Z,98821.33
2017-11-18T02:12:09.514Z,98826.56
2017-11-18T02:14:38.668Z,98827.98
2017-11-18T02:17:08.229Z,98825.16
2017-11-18T02:19:37.471Z,98823.75
2017-11-18T02:22:07.428Z,98820.08
2017-11-18T02:24:36.696Z,98817.89
2017-11-18T02:27:06.018Z,98817.39
2017-11-18T02:29:35.441Z,98813.47
2017-11-18T02:32:04.786Z,98819.91
2017-11-18T02:34:33.304Z,98815.88
2017-11-18T02:37:02.507Z,98815.05
2017-11-18T02:39:31.625Z,98807.75
2017-11-18T02:42:01.252Z,98807.37
2017-11-18T02:44:30.444Z,98806.32
2017-11-18T02:46:59.561Z,98795.38
2017-11-18T02:49:29.196Z,98799.59
2017-11-18T02:51:58.485Z,98796.56
2017-11-18T02:54:27.618Z,98788.48
2017-11-18T02:56:57.284Z,98790.84
2017-11-18T02:59:26.656Z,98796.26
2017-11-18T03:01:56.280Z,98793.03
2017-11-18T03:04:25.426Z,98793.02
2017-11-18T03:06:54.642Z,98783.91
2017-11-18T03:09:24.345Z,98777.86
2017-11-18T03:11:53.470Z,98783.51
2017-11-18T03:14:22.587Z,98785.92
2017-11-18T03:16:51.937Z,98786.57
2017-11-18T03:19:21.292Z,98786.57
2017-11-18T03:21:50.396Z,98783.51
2017-11-18T03:24:19.555Z,98776.00
2017-11-18T03:26:48.744Z,98772.14
2017-11-18T03:29:18.245Z,98774.17
2017-11-18T03:31:47.417Z,98771.33
2017-11-18T03:34:16.560Z,98770.69
2017-11-18T03:36:45.757Z,98769.47
2017-11-18T03:39:15.290Z,98765.43
2017-11-18T03:41:44.561Z,98770.66
2017-11-18T03:44:14.750Z,98779.98
2017-11-18T03:46:44.280Z,98771.09
2017-11-18T03:49:14.469Z,98775.31
2017-11-18T03:51:43.590Z,98773.89
2017-11-18T03:54:12.645Z,98782.77
2017-11-18T03:56:41.938Z,98778.10
2017-11-18T03:59:11.357Z,98772.85
2017-11-18T04:01:40.625Z,98789.80
2017-11-18T04:04:09.937Z,98776.28
2017-11-18T04:06:39.413Z,98766.75
2017-11-18T04:09:08.584Z,98768.17
2017-11-18T04:11:40.291Z,98769.53
2017-11-18T04:14:09.420Z,98758.20
2017-11-18T04:16:38.545Z,98756.40
2017-11-18T04:19:07.740Z,98756.66
2017-11-18T04:21:37.289Z,98751.78
2017-11-18T04:24:06.405Z,98762.67
2017-11-18T04:26:35.549Z,98757.45
2017-11-18T04:29:04.733Z,98756.03
2017-11-18T04:31:34.319Z,98753.61
2017-11-18T04:34:03.429Z,98756.23
2017-11-18T04:36:32.620Z,98761.08
2017-11-18T04:39:01.937Z,98759.05
2017-11-18T04:41:31.343Z,98762.30
2017-11-18T04:44:00.440Z,98758.84
2017-11-18T04:46:29.620Z,98748.53
2017-11-18T04:48:59.290Z,98752.37
2017-11-18T04:51:28.436Z,98751.58
2017-11-18T04:53:57.522Z,98746.48
2017-11-18T04:56:26.728Z,98749.28
2017-11-18T04:58:55.941Z,98755.36
2017-11-18T05:01:25.286Z,98748.87
2017-11-18T05:03:54.434Z,98747.67
2017-11-18T05:06:23.561Z,98753.72
2017-11-18T05:08:52.662Z,98758.98
2017-11-18T05:11:22.018Z,98755.42
2017-11-18T05:13:51.404Z,98756.38
2017-11-18T05:16:20.576Z,98745.02
2017-11-18T05:18:49.633Z,98737.44
2017-11-18T05:21:19.456Z,98736.37
2017-11-18T05:23:48.526Z,98745.56
2017-11-18T05:26:17.646Z,98745.66
2017-11-18T05:28:47.282Z,98748.09
2017-11-18T05:31:16.421Z,98749.91
2017-11-18T05:33:45.721Z,98754.78
2017-11-18T05:36:15.300Z,98745.05
2017-11-18T05:38:44.413Z,98755.78
2017-11-18T05:41:13.537Z,98750.73
2017-11-18T05:43:42.737Z,98750.16
2017-11-18T05:46:12.292Z,98743.93
2017-11-18T05:48:41.429Z,98745.55
2017-11-18T05:51:10.627Z,98749.62
2017-11-18T05:53:39.954Z,98746.96
2017-11-18T05:56:09.255Z,98745.38
2017-11-18T05:58:38.420Z,98743.35
2017-11-18T06:01:07.725Z,98747.19
2017-11-18T06:03:37.025Z,98744.56
2017-11-18T06:06:06.438Z,98747.39
2017-11-18T06:08:35.725Z,98748.58
2017-11-18T06:11:05.029Z,98743.95
2017-11-18T06:13:34.413Z,98744.14
2017-11-18T06:16:03.461Z,98745.53
2017-11-18T06:18:32.752Z,98743.09
2017-11-18T06:21:02.382Z,98746.52
2017-11-18T06:23:31.556Z,98746.12
2017-11-18T06:26:00.753Z,98754.83
2017-11-18T06:28:30.285Z,98752.19
2017-11-18T06:30:59.445Z,98753.19
2017-11-18T06:33:28.562Z,98741.86
2017-11-18T06:35:57.726Z,98741.68
2017-11-18T06:38:27.029Z,98741.66
2017-11-18T06:40:56.407Z,98735.59
2017-11-18T06:43:25.581Z,98746.52
2017-11-18T06:45:54.646Z,98751.59
2017-11-18T06:48:24.029Z,98756.23
2017-11-18T06:50:53.485Z,98760.09
2017-11-18T06:53:22.636Z,98759.86
2017-11-18T06:55:51.951Z,98764.52
2017-11-18T06:58:21.421Z,98769.41
2017-11-18T07:00:50.589Z,98766.52
2017-11-18T07:03:19.765Z,98759.06
2017-11-18T07:05:49.255Z,98763.30
2017-11-18T07:08:18.428Z,98771.98
2017-11-18T07:10:47.580Z,98776.22
2017-11-18T07:15:34.415Z,98767.55
2017-11-18T07:18:03.536Z,98768.15
2017-11-18T07:20:32.600Z,98777.25
2017-11-18T07:23:01.675Z,98776.25
2017-11-18T07:25:30.945Z,98779.28
2017-11-18T07:28:06.704Z,98773.82
2017-11-18T07:30:35.996Z,98775.86
2017-11-18T07:33:05.400Z,98766.75
2017-11-18T07:35:34.435Z,98771.41
2017-11-18T07:38:03.539Z,98775.08
2017-11-18T07:40:32.685Z,98778.33
2017-11-18T07:43:02.295Z,98778.95
2017-11-18T07:45:31.430Z,98775.29
2017-11-18T07:48:00.539Z,98772.89
2017-11-18T07:50:29.714Z,98772.29
2017-11-18T07:52:59.259Z,98769.64
2017-11-18T07:55:28.420Z,98768.84
2017-11-18T07:57:57.632Z,98762.78
2017-11-18T08:00:26.940Z,98755.09
2017-11-18T08:02:56.252Z,98750.02
2017-11-18T08:05:25.441Z,98743.59
2017-11-18T08:07:54.508Z,98751.27
2017-11-18T08:10:23.543Z,98754.70
2017-11-18T08:12:52.941Z,98751.87
2017-11-18T08:15:22.244Z,98753.30
2017-11-18T08:17:51.499Z,98751.69
2017-11-18T08:20:20.716Z,98751.08
2017-11-18T08:22:49.984Z,98755.11
2017-11-18T08:25:19.370Z,98758.37
2017-11-18T08:28:56.735Z,98759.44
2017-11-18T08:31:26.266Z,98762.91
2017-11-18T08:33:55.425Z,98768.59
2017-11-18T08:36:33.392Z,98760.69
2017-11-18T08:39:02.498Z,98770.22
2017-11-18T08:41:31.645Z,98766.95
2017-11-18T08:44:01.493Z,98762.52
2017-11-18T08:46:31.481Z,98752.58
2017-11-18T08:49:00.648Z,98749.73
2017-11-18T08:51:30.287Z,98750.16
2017-11-18T08:53:59.441Z,98746.09
2017-11-18T08:56:30.524Z,98753.78
2017-11-18T08:58:59.837Z,98761.09
2017-11-18T09:01:29.471Z,98761.30
2017-11-18T09:03:58.548Z,98759.10
2017-11-18T09:06:28.277Z,98756.86
2017-11-18T09:08:58.549Z,98746.92
2017-11-18T09:11:28.275Z,98748.34
2017-11-18T09:13:57.466Z,98744.50
2017-11-18T09:16:26.649Z,98755.44
2017-11-18T09:18:55.944Z,98749.94
2017-11-18T09:21:25.320Z,98749.52
2017-11-18T09:23:54.505Z,98749.92
2017-11-18T09:26:23.541Z,98753.13
2017-11-18T09:28:52.704Z,98754.12
2017-11-18T09:31:21.943Z,98748.85
2017-11-18T09:33:51.284Z,98741.36
2017-11-18T09:36:20.828Z,98739.75
2017-11-18T09:38:50.409Z,98739.75
2017-11-18T09:41:19.630Z,98739.73
2017-11-18T09:43:48.989Z,98733.24
2017-11-18T09:48:41.064Z,98719.66
2017-11-18T09:51:45.536Z,98713.00
2017-11-18T09:54:34.581Z,98710.17
2017-11-18T09:58:41.793Z,98709.98
2017-11-18T10:01:10.469Z,98696.45
2017-11-18T10:03:40.425Z,98697.87
2017-11-18T10:06:09.660Z,98696.86
2017-11-18T10:10:39.417Z,98691.59
2017-11-18T10:13:08.532Z,98688.52
2017-11-18T10:15:37.953Z,98691.05
2017-11-18T10:18:07.392Z,98678.14
2017-11-18T10:20:36.460Z,98685.41
2017-11-18T10:23:05.520Z,98685.98
2017-11-18T10:25:34.552Z,98678.91
2017-11-18T10:28:03.888Z,98682.17
2017-11-18T10:30:33.253Z,98678.46
2017-11-18T10:33:02.417Z,98675.54
2017-11-18T10:35:31.468Z,98664.55
2017-11-18T10:38:00.524Z,98672.13
2017-11-18T10:40:29.609Z,98671.98
2017-11-18T10:42:58.749Z,98674.66
2017-11-18T10:45:28.300Z,98671.91
2017-11-18T10:47:57.417Z,98668.44
2017-11-18T10:50:26.653Z,98665.63
2017-11-18T10:52:56.173Z,98668.06
2017-11-18T10:55:25.433Z,98667.06
2017-11-18T10:57:54.566Z,98662.00
2017-11-18T11:00:23.763Z,98665.47
2017-11-18T11:02:53.300Z,98660.39
2017-11-18T11:05:22.505Z,98644.98
2017-11-18T11:07:51.546Z,98649.23
2017-11-18T11:10:20.629Z,98649.23
2017-11-18T11:12:50.271Z,98642.94
2017-11-18T11:15:19.427Z,98642.14
2017-11-18T11:17:48.557Z,98643.38
2017-11-18T11:23:18.275Z,98637.29
2017-11-18T11:28:10.560Z,98626.95
2017-11-18T11:30:39.997Z,98622.29
2017-11-18T11:33:09.326Z,98616.42
2017-11-18T11:35:38.601Z,98612.77
2017-11-18T11:38:07.698Z,98612.56
2017-11-18T11:40:36.951Z,98606.48
2017-11-18T11:43:06.592Z,98603.83
2017-11-18T11:45:35.952Z,98598.56
2017-11-18T11:48:05.436Z,98598.37
2017-11-18T11:50:34.692Z,98598.98
2017-11-18T11:53:03.939Z,98598.98
2017-11-18T11:57:09.292Z,98601.02
2017-11-18T11:59:38.451Z,98591.91
2017-11-18T12:02:07.549Z,98589.23
2017-11-18T12:04:36.708Z,98583.37
2017-11-18T12:07:05.985Z,98585.41
2017-11-18T12:09:35.344Z,98580.55
2017-11-18T12:12:04.491Z,98585.41
2017-11-18T12:14:33.556Z,98573.07
2017-11-18T12:17:02.937Z,98579.97
2017-11-18T12:19:32.943Z,98579.34
2017-11-18T12:22:02.296Z,98581.80
2017-11-18T12:24:31.433Z,98573.66
2017-11-18T12:27:00.540Z,98577.72
2017-11-18T12:29:29.760Z,98570.02
2017-11-18T12:34:41.495Z,98563.36
2017-11-18T12:37:10.947Z,98564.35
2017-11-18T12:39:40.410Z,98556.44
2017-11-18T12:42:09.553Z,98550.17
2017-11-18T12:44:40.245Z,98547.11
2017-11-18T12:47:09.429Z,98544.27
2017-11-18T12:49:38.967Z,98534.76
2017-11-18T12:52:08.300Z,98538.82
2017-11-18T12:54:37.433Z,98539.42
2017-11-18T12:57:06.613Z,98537.39
2017-11-18T12:59:36.253Z,98534.98
2017-11-18T13:02:05.439Z,98536.00
2017-11-18T13:04:34.679Z,98537.61
2017-11-18T13:07:03.954Z,98538.21
2017-11-18T13:09:33.292Z,98543.70
2017-11-18T13:12:02.568Z,98557.66
2017-11-18T13:14:31.946Z,98547.13
2017-11-18T13:17:01.291Z,98543.09
2017-11-18T13:19:30.426Z,98540.63
2017-11-18T13:21:59.525Z,98543.70
2017-11-18T13:24:28.527Z,98547.73
2017-11-18T13:26:58.056Z,98540.45
2017-11-18T13:29:27.519Z,98526.06
2017-11-18T13:31:56.584Z,98527.48
2017-11-18T13:34:25.953Z,98531.13
2017-11-18T13:36:55.326Z,98531.55
2017-11-18T13:39:24.598Z,98534.38
2017-11-18T13:41:53.715Z,98533.56
2017-11-18T13:44:23.175Z,98536.39
2017-11-18T13:46:52.429Z,98538.22
2017-11-18T13:49:21.676Z,98538.22
2017-11-18T13:51:51.053Z,98533.56
2017-11-18T13:54:20.473Z,98528.30
2017-11-18T13:56:49.586Z,98526.46
2017-11-18T13:59:19.251Z,98523.63
2017-11-18T14:01:48.433Z,98527.08
2017-11-18T14:04:17.555Z,98546.70
2017-11-18T14:06:46.733Z,98535.17
2017-11-18T14:09:16.256Z,98538.42
2017-11-18T14:11:45.468Z,98533.34
2017-11-18T14:15:05.403Z,98533.77
2017-11-18T14:17:34.721Z,98547.94
2017-11-18T14:20:04.358Z,98542.05
2017-11-18T14:22:33.592Z,98541.45
2017-11-18T14:25:02.682Z,98542.27
2017-11-18T14:27:32.051Z,98540.86
2017-11-18T14:30:03.229Z,98534.96
2017-11-18T14:32:32.525Z,98535.19
2017-11-18T14:35:01.617Z,98541.86
2017-11-18T14:37:30.737Z,98541.03
2017-11-18T14:40:00.240Z,98544.80
2017-11-18T14:45:00.433Z,98546.17
2017-11-18T14:47:29.581Z,98547.87
2017-11-18T14:49:58.949Z,98544.89
2017-11-18T14:52:28.305Z,98552.97
2017-11-18T14:54:57.461Z,98558.17
2017-11-18T14:57:26.952Z,98557.06
2017-11-18T14:59:56.482Z,98555.47
2017-11-18T15:02:25.757Z,98551.42
2017-11-18T15:04:55.393Z,98549.91
2017-11-18T15:07:25.065Z,98559.73
2017-11-18T15:09:54.581Z,98557.56
2017-11-18T15:12:24.315Z,98553.84
2017-11-18T15:14:53.545Z,98561.36
2017-11-18T15:17:26.630Z,98560.00
2017-11-18T15:19:59.973Z,98553.07
2017-11-18T15:22:29.404Z,98561.02
2017-11-18T15:25:02.529Z,98554.41
2017-11-18T15:27:35.653Z,98561.37
2017-11-18T15:30:05.433Z,98564.84
2017-11-18T15:32:35.173Z,98562.00
2017-11-18T15:35:04.766Z,98564.05
2017-11-18T15:37:33.623Z,98565.33
2017-11-18T15:40:03.289Z,98563.05
2017-11-18T15:42:32.490Z,98568.09
2017-11-18T15:45:01.707Z,98565.95
2017-11-18T15:47:31.431Z,98561.33
2017-11-18T15:50:02.334Z,98569.20
2017-11-18T15:52:32.293Z,98558.05
2017-11-18T15:55:04.244Z,98571.50
2017-11-18T15:57:33.489Z,98568.89
2017-11-18T16:00:02.644Z,98562.87
2017-11-18T16:02:32.410Z,98563.38
2017-11-18T16:05:01.565Z,98558.63
2017-11-18T16:07:30.937Z,98551.86
2017-11-18T16:10:00.433Z,98547.31
2017-11-18T16:12:29.751Z,98543.20
2017-11-18T16:14:59.288Z,98530.58
2017-11-18T16:17:28.658Z,98527.45
2017-11-18T16:19:57.936Z,98532.87
2017-11-18T16:22:27.287Z,98529.00
2017-11-18T16:24:56.477Z,98532.91
2017-11-18T16:27:25.589Z,98543.66
2017-11-18T16:29:55.042Z,98543.88
2017-11-18T16:32:24.477Z,98542.88
2017-11-18T16:34:53.826Z,98543.47
2017-11-18T16:37:23.228Z,98537.02
2017-11-18T16:39:52.509Z,98539.62
2017-11-18T16:42:21.636Z,98541.48
2017-11-18T16:44:50.938Z,98547.81
2017-11-18T16:47:20.374Z,98555.53
2017-11-18T16:49:49.471Z,98543.90
2017-11-18T16:52:19.241Z,98545.59
2017-11-18T16:54:48.404Z,98541.98
2017-11-18T16:57:17.535Z,98550.09
2017-11-18T16:59:47.020Z,98548.13
2017-11-18T17:02:16.389Z,98548.14
2017-11-18T17:04:45.608Z,98549.14
2017-11-18T17:07:14.949Z,98554.63
2017-11-18T17:09:44.297Z,98552.98
2017-11-18T17:12:13.420Z,98549.97
2017-11-18T17:16:51.508Z,98547.33
2017-11-18T17:19:20.682Z,98544.70
2017-11-18T17:21:49.971Z,98540.05
2017-11-18T17:24:20.956Z,98542.88
2017-11-18T17:26:50.398Z,98553.20
2017-11-18T17:29:19.527Z,98548.54
2017-11-18T17:31:49.202Z,98553.77
2017-11-18T17:34:18.435Z,98551.94
2017-11-18T17:36:47.799Z,98547.27
2017-11-18T17:39:16.292Z,98551.52
2017-11-18T17:41:45.465Z,98553.74
2017-11-18T17:44:14.621Z,98546.25
2017-11-18T17:46:44.047Z,98545.02
2017-11-18T17:49:13.629Z,98547.66
2017-11-18T17:51:43.286Z,98550.08
2017-11-18T17:54:12.461Z,98547.25
2017-11-18T17:56:41.656Z,98536.92
2017-11-18T17:59:11.013Z,98544.64
2017-11-18T18:01:40.458Z,98540.00
2017-11-18T18:07:09.940Z,98542.27
2017-11-18T18:09:39.302Z,98539.59
2017-11-18T18:12:08.473Z,98530.31
2017-11-18T18:14:37.674Z,98534.57
2017-11-18T18:18:46.698Z,98529.94
2017-11-18T18:21:15.983Z,98531.95
2017-11-18T18:23:45.289Z,98534.19
2017-11-18T18:26:14.426Z,98532.77
2017-11-18T18:28:43.707Z,98527.88
2017-11-18T18:31:13.069Z,98531.34
2017-11-18T18:33:42.500Z,98533.16
2017-11-18T18:36:11.651Z,98526.86
2017-11-18T18:38:41.228Z,98529.92
2017-11-18T18:41:10.379Z,98519.18
2017-11-18T18:43:39.476Z,98511.69
2017-11-18T18:46:08.597Z,98518.77
2017-11-18T18:48:38.225Z,98518.19
2017-11-18T18:51:07.411Z,98515.36
2017-11-18T18:53:36.641Z,98512.52
2017-11-18T18:56:06.275Z,98502.38
2017-11-18T18:58:35.443Z,98520.80
2017-11-18T19:01:04.614Z,98505.44
2017-11-18T19:03:33.937Z,98499.96
2017-11-18T19:08:22.516Z,98485.38
2017-11-18T19:10:52.189Z,98492.06
2017-11-18T19:13:21.431Z,98490.27
2017-11-18T19:15:50.947Z,98487.81
2017-11-18T19:18:20.651Z,98492.88
2017-11-18T19:20:49.941Z,98494.52
2017-11-18T19:23:19.424Z,98489.86
2017-11-18T19:25:48.761Z,98485.39
2017-11-18T19:28:18.279Z,98488.63
2017-11-18T19:32:19.389Z,98486.78
2017-11-18T19:34:48.466Z,98476.27
2017-11-18T19:37:17.679Z,98481.34
2017-11-18T19:39:47.304Z,98472.41
2017-11-18T19:42:16.453Z,98466.34
2017-11-18T19:44:45.637Z,98459.86
2017-11-18T19:47:15.053Z,98461.08
2017-11-18T19:49:44.497Z,98453.57
2017-11-18T19:52:14.460Z,98447.08
2017-11-18T19:57:30.947Z,98457.82
2017-11-18T20:00:00.410Z,98452.53
2017-11-18T20:02:29.630Z,98453.35
2017-11-18T20:04:59.030Z,98448.09
2017-11-18T20:07:28.397Z,98445.23
2017-11-18T20:11:19.574Z,98444.85
2017-11-18T20:13:48.741Z,98445.27
2017-11-18T20:16:18.366Z,98445.27
2017-11-18T20:18:47.629Z,98439.37
2017-11-18T20:21:16.946Z,98427.86
2017-11-18T20:23:46.353Z,98422.40
2017-11-18T20:26:15.441Z,98414.11
2017-11-18T20:28:45.253Z,98407.40
2017-11-18T20:31:14.483Z,98404.38
2017-11-18T20:33:43.602Z,98395.90
2017-11-18T20:36:12.959Z,98380.11
2017-11-18T20:38:42.357Z,98382.33
2017-11-18T20:41:11.569Z,98379.31
2017-11-18T20:43:41.410Z,98375.08
2017-11-18T20:46:10.500Z,98378.33
2017-11-18T20:48:39.621Z,98373.66
2017-11-18T20:51:08.944Z,98379.50
2017-11-18T20:53:38.288Z,98372.00
2017-11-18T20:56:07.461Z,98368.35
2017-11-18T20:58:40.363Z,98367.72
2017-11-18T21:01:09.641Z,98362.69
2017-11-18T21:03:40.813Z,98362.27
2017-11-18T21:06:11.005Z,98350.88
2017-11-18T21:08:40.528Z,98343.36
2017-11-18T21:11:09.570Z,98343.77
2017-11-18T21:13:39.172Z,98338.27
2017-11-18T21:16:09.485Z,98334.42
2017-11-18T21:18:38.551Z,98334.00
2017-11-18T21:21:07.717Z,98329.95
2017-11-18T21:23:37.020Z,98325.73
2017-11-18T21:26:06.445Z,98326.09
2017-11-18T21:28:35.543Z,98333.98
2017-11-18T21:31:07.575Z,98315.10
2017-11-18T21:33:37.604Z,98317.55
2017-11-18T21:36:07.052Z,98306.80
2017-11-18T21:38:36.483Z,98309.23
2017-11-18T21:41:05.664Z,98299.77
2017-11-18T21:43:35.245Z,98287.63
2017-11-18T21:46:04.444Z,98289.25
2017-11-18T21:48:33.612Z,98291.05
2017-11-18T21:51:04.836Z,98288.00
2017-11-18T21:53:34.463Z,98289.65
2017-11-18T21:56:03.626Z,98299.95
2017-11-18T21:58:33.285Z,98298.33
2017-11-18T22:01:02.432Z,98302.58
2017-11-18T22:03:31.534Z,98295.33
2017-11-18T22:06:00.683Z,98295.19
2017-11-18T22:08:30.064Z,98287.70
2017-11-18T22:10:59.462Z,98292.97
2017-11-18T22:13:28.590Z,98286.12
2017-11-18T22:15:57.874Z,98302.71
2017-11-18T22:18:27.465Z,98294.20
2017-11-18T22:20:56.533Z,98284.08
2017-11-18T22:23:25.676Z,98283.47
2017-11-18T22:25:55.350Z,98286.67
2017-11-18T22:28:24.595Z,98285.44
2017-11-18T22:30:53.761Z,98283.99
2017-11-18T22:33:23.404Z,98288.23
2017-11-18T22:35:52.504Z,98282.99
2017-11-18T22:38:21.711Z,98278.72
2017-11-18T22:40:51.272Z,98288.47
2017-11-18T22:43:22.605Z,98275.51
2017-11-18T22:45:51.834Z,98279.79
2017-11-18T22:48:21.294Z,98279.58
2017-11-18T22:50:50.568Z,98283.80
2017-11-18T22:53:19.725Z,98287.45
2017-11-18T22:55:49.256Z,98284.82
2017-11-18T22:58:18.436Z,98273.88
2017-11-18T23:00:47.542Z,98266.80
2017-11-18T23:03:16.645Z,98274.71
2017-11-18T23:05:45.962Z,98273.27
2017-11-18T23:08:17.546Z,98271.02
2017-11-18T23:10:46.733Z,98262.55
2017-11-18T23:13:16.269Z,98257.32
2017-11-18T23:15:45.429Z,98256.53
2017-11-18T23:18:14.692Z,98266.69
2017-11-18T23:20:43.946Z,98266.09
2017-11-18T23:23:13.249Z,98260.70
2017-11-18T23:25:43.677Z,98264.74
2017-11-18T23:28:17.661Z,98268.19
2017-11-18T23:30:47.042Z,98249.80
2017-11-18T23:33:16.404Z,98238.46
2017-11-18T23:35:45.616Z,98238.09
2017-11-18T23:38:15.028Z,98229.61
2017-11-18T23:40:44.433Z,98242.97
2017-11-18T23:43:13.545Z,98228.03
2017-11-18T23:45:42.727Z,98223.79
2017-11-18T23:48:12.028Z,98223.80
2017-11-18T23:50:41.355Z,98228.06
2017-11-18T23:53:10.458Z,98217.34
2017-11-18T23:55:39.949Z,98208.39
2017-11-18T23:58:09.450Z,98222.38
